sensor_id;sensor_type;location;lat;lon;timestamp;temperature;humidity
56076;DHT22;41951;49.022;12.066;2023-03-20T00:00:08;8.80;99.90
56076;DHT22;41951;49.022;12.066;2023-03-20T00:02:38;8.80;99.90
56076;DHT22;41951;49.022;12.066;2023-03-20T00:05:15;8.80;99.90
56076;DHT22;41951;49.022;12.066;2023-03-20T00:07:43;8.80;99.90
56076;DHT22;41951;49.022;12.066;2023-03-20T00:10:09;8.70;99.90
56076;DHT22;41951;49.022;12.066;2023-03-20T00:12:35;8.70;99.90
56076;DHT22;41951;49.022;12.066;2023-03-20T00:15:02;8.70;99.90
56076;DHT22;41951;49.022;12.066;2023-03-20T00:17:29;8.70;99.90
56076;DHT22;41951;49.022;12.066;2023-03-20T00:19:54;8.70;99.90
56076;DHT22;41951;49.022;12.066;2023-03-20T00:22:20;8.60;99.90
56076;DHT22;41951;49.022;12.066;2023-03-20T00:24:46;8.60;99.90
56076;DHT22;41951;49.022;12.066;2023-03-20T00:27:14;8.60;99.90
56076;DHT22;41951;49.022;12.066;2023-03-20T00:29:40;8.60;99.90
56076;DHT22;41951;49.022;12.066;2023-03-20T00:32:10;8.60;99.90
56076;DHT22;41951;49.022;12.066;2023-03-20T00:34:37;8.60;99.90
56076;DHT22;41951;49.022;12.066;2023-03-20T00:37:03;8.60;99.90
56076;DHT22;41951;49.022;12.066;2023-03-20T00:39:29;8.60;99.90
56076;DHT22;41951;49.022;12.066;2023-03-20T00:42:04;8.60;99.90
56076;DHT22;41951;49.022;12.066;2023-03-20T00:44:47;8.60;99.90
56076;DHT22;41951;49.022;12.066;2023-03-20T00:47:19;8.50;99.90
56076;DHT22;41951;49.022;12.066;2023-03-20T00:49:47;8.40;99.90
56076;DHT22;41951;49.022;12.066;2023-03-20T00:52:16;8.40;99.90
56076;DHT22;41951;49.022;12.066;2023-03-20T00:54:41;8.50;99.90
56076;DHT22;41951;49.022;12.066;2023-03-20T00:57:15;8.50;99.90
56076;DHT22;41951;49.022;12.066;2023-03-20T00:59:52;8.40;99.90
56076;DHT22;41951;49.022;12.066;2023-03-20T01:02:19;8.40;99.90
56076;DHT22;41951;49.022;12.066;2023-03-20T01:04:46;8.50;99.90
56076;DHT22;41951;49.022;12.066;2023-03-20T01:07:13;8.40;99.90
56076;DHT22;41951;49.022;12.066;2023-03-20T01:09:39;8.40;99.90
56076;DHT22;41951;49.022;12.066;2023-03-20T01:12:06;8.30;99.90
56076;DHT22;41951;49.022;12.066;2023-03-20T01:14:32;8.30;99.90
56076;DHT22;41951;49.022;12.066;2023-03-20T01:16:58;8.30;99.90
56076;DHT22;41951;49.022;12.066;2023-03-20T01:19:24;8.30;99.90
56076;DHT22;41951;49.022;12.066;2023-03-20T01:21:49;8.30;99.90
56076;DHT22;41951;49.022;12.066;2023-03-20T01:24:15;8.30;99.90
56076;DHT22;41951;49.022;12.066;2023-03-20T01:26:42;8.20;99.90
56076;DHT22;41951;49.022;12.066;2023-03-20T01:29:22;8.20;99.90
56076;DHT22;41951;49.022;12.066;2023-03-20T01:31:49;8.30;99.90
56076;DHT22;41951;49.022;12.066;2023-03-20T01:34:15;8.20;99.90
56076;DHT22;41951;49.022;12.066;2023-03-20T01:36:51;8.20;99.90
56076;DHT22;41951;49.022;12.066;2023-03-20T01:39:21;8.10;99.90
56076;DHT22;41951;49.022;12.066;2023-03-20T01:41:50;8.00;99.90
56076;DHT22;41951;49.022;12.066;2023-03-20T01:44:22;7.90;99.90
56076;DHT22;41951;49.022;12.066;2023-03-20T01:46:50;7.90;99.90
56076;DHT22;41951;49.022;12.066;2023-03-20T01:51:47;8.00;99.90
56076;DHT22;41951;49.022;12.066;2023-03-20T01:56:58;8.00;99.90
56076;DHT22;41951;49.022;12.066;2023-03-20T01:59:30;7.90;99.90
56076;DHT22;41951;49.022;12.066;2023-03-20T02:01:57;7.90;99.90
56076;DHT22;41951;49.022;12.066;2023-03-20T02:04:28;8.00;99.90
56076;DHT22;41951;49.022;12.066;2023-03-20T02:06:55;8.00;99.90
56076;DHT22;41951;49.022;12.066;2023-03-20T02:09:20;7.90;99.90
56076;DHT22;41951;49.022;12.066;2023-03-20T02:11:46;7.90;99.90
56076;DHT22;41951;49.022;12.066;2023-03-20T02:14:13;7.90;99.90
56076;DHT22;41951;49.022;12.066;2023-03-20T02:16:39;7.90;99.90
56076;DHT22;41951;49.022;12.066;2023-03-20T02:19:08;7.90;99.90
56076;DHT22;41951;49.022;12.066;2023-03-20T02:21:59;7.90;99.90
56076;DHT22;41951;49.022;12.066;2023-03-20T02:38:45;7.90;99.90
56076;DHT22;41951;49.022;12.066;2023-03-20T02:44:11;7.90;99.90
56076;DHT22;41951;49.022;12.066;2023-03-20T02:46:56;7.80;99.90
56076;DHT22;41951;49.022;12.066;2023-03-20T03:00:35;7.70;99.90
56076;DHT22;41951;49.022;12.066;2023-03-20T03:03:05;7.60;99.90
56076;DHT22;41951;49.022;12.066;2023-03-20T03:05:42;7.60;99.90
56076;DHT22;41951;49.022;12.066;2023-03-20T03:08:11;7.60;99.90
56076;DHT22;41951;49.022;12.066;2023-03-20T03:10:57;7.50;99.90
56076;DHT22;41951;49.022;12.066;2023-03-20T03:13:28;7.50;99.90
56076;DHT22;41951;49.022;12.066;2023-03-20T03:16:04;7.50;99.90
56076;DHT22;41951;49.022;12.066;2023-03-20T03:18:31;7.50;99.90
56076;DHT22;41951;49.022;12.066;2023-03-20T03:21:01;7.40;99.90
56076;DHT22;41951;49.022;12.066;2023-03-20T03:23:39;7.40;99.90
56076;DHT22;41951;49.022;12.066;2023-03-20T03:26:12;7.40;99.90
56076;DHT22;41951;49.022;12.066;2023-03-20T03:28:45;7.40;99.90
56076;DHT22;41951;49.022;12.066;2023-03-20T03:31:14;7.30;99.90
56076;DHT22;41951;49.022;12.066;2023-03-20T03:33:45;7.30;99.90
56076;DHT22;41951;49.022;12.066;2023-03-20T03:39:38;7.30;99.90
56076;DHT22;41951;49.022;12.066;2023-03-20T03:45:11;7.30;99.90
56076;DHT22;41951;49.022;12.066;2023-03-20T03:48:34;7.30;99.90
56076;DHT22;41951;49.022;12.066;2023-03-20T03:50:53;7.40;99.90
56076;DHT22;41951;49.022;12.066;2023-03-20T03:53:26;7.40;99.90
56076;DHT22;41951;49.022;12.066;2023-03-20T03:55:58;7.50;99.90
56076;DHT22;41951;49.022;12.066;2023-03-20T03:58:41;7.50;99.90
56076;DHT22;41951;49.022;12.066;2023-03-20T04:01:09;7.50;99.90
56076;DHT22;41951;49.022;12.066;2023-03-20T04:03:39;7.50;99.90
56076;DHT22;41951;49.022;12.066;2023-03-20T04:06:08;7.60;99.90
56076;DHT22;41951;49.022;12.066;2023-03-20T04:08:34;7.50;99.90
56076;DHT22;41951;49.022;12.066;2023-03-20T04:11:00;7.50;99.90
56076;DHT22;41951;49.022;12.066;2023-03-20T04:13:26;7.50;99.90
56076;DHT22;41951;49.022;12.066;2023-03-20T04:15:52;7.60;99.90
56076;DHT22;41951;49.022;12.066;2023-03-20T04:18:18;7.50;99.90
56076;DHT22;41951;49.022;12.066;2023-03-20T04:20:45;7.50;99.90
56076;DHT22;41951;49.022;12.066;2023-03-20T04:23:12;7.40;99.90
56076;DHT22;41951;49.022;12.066;2023-03-20T04:25:37;7.50;99.90
56076;DHT22;41951;49.022;12.066;2023-03-20T04:28:04;7.50;99.90
56076;DHT22;41951;49.022;12.066;2023-03-20T04:30:30;7.50;99.90
56076;DHT22;41951;49.022;12.066;2023-03-20T04:32:56;7.50;99.90
56076;DHT22;41951;49.022;12.066;2023-03-20T04:35:22;7.50;99.90
56076;DHT22;41951;49.022;12.066;2023-03-20T04:37:47;7.50;99.90
56076;DHT22;41951;49.022;12.066;2023-03-20T04:40:13;7.60;99.90
56076;DHT22;41951;49.022;12.066;2023-03-20T04:42:39;7.60;99.90
56076;DHT22;41951;49.022;12.066;2023-03-20T04:45:05;7.60;99.90
56076;DHT22;41951;49.022;12.066;2023-03-20T04:47:31;7.60;99.90
56076;DHT22;41951;49.022;12.066;2023-03-20T04:49:57;7.60;99.90
56076;DHT22;41951;49.022;12.066;2023-03-20T04:52:22;7.60;99.90
56076;DHT22;41951;49.022;12.066;2023-03-20T04:54:48;7.50;99.90
56076;DHT22;41951;49.022;12.066;2023-03-20T04:57:14;7.50;99.90
56076;DHT22;41951;49.022;12.066;2023-03-20T04:59:40;7.50;99.90
56076;DHT22;41951;49.022;12.066;2023-03-20T05:02:06;7.50;99.90
56076;DHT22;41951;49.022;12.066;2023-03-20T05:04:31;7.50;99.90
56076;DHT22;41951;49.022;12.066;2023-03-20T05:06:57;7.60;99.90
56076;DHT22;41951;49.022;12.066;2023-03-20T05:09:22;7.60;99.90
56076;DHT22;41951;49.022;12.066;2023-03-20T05:11:48;7.60;99.90
56076;DHT22;41951;49.022;12.066;2023-03-20T05:14:13;7.60;99.90
56076;DHT22;41951;49.022;12.066;2023-03-20T05:16:39;7.60;99.90
56076;DHT22;41951;49.022;12.066;2023-03-20T05:19:05;7.60;99.90
56076;DHT22;41951;49.022;12.066;2023-03-20T05:21:31;7.60;99.90
56076;DHT22;41951;49.022;12.066;2023-03-20T05:23:56;7.60;99.90
56076;DHT22;41951;49.022;12.066;2023-03-20T05:26:22;7.60;99.90
56076;DHT22;41951;49.022;12.066;2023-03-20T05:28:47;7.60;99.90
56076;DHT22;41951;49.022;12.066;2023-03-20T05:31:13;7.50;99.90
56076;DHT22;41951;49.022;12.066;2023-03-20T05:33:38;7.50;99.90
56076;DHT22;41951;49.022;12.066;2023-03-20T05:36:05;7.40;99.90
56076;DHT22;41951;49.022;12.066;2023-03-20T05:38:31;7.40;99.90
56076;DHT22;41951;49.022;12.066;2023-03-20T05:41:00;7.50;99.90
56076;DHT22;41951;49.022;12.066;2023-03-20T05:43:26;7.60;99.90
56076;DHT22;41951;49.022;12.066;2023-03-20T05:45:54;7.60;99.90
56076;DHT22;41951;49.022;12.066;2023-03-20T05:48:21;7.70;99.90
56076;DHT22;41951;49.022;12.066;2023-03-20T05:50:46;7.60;99.90
56076;DHT22;41951;49.022;12.066;2023-03-20T05:53:12;7.70;99.90
56076;DHT22;41951;49.022;12.066;2023-03-20T05:55:38;7.70;99.90
56076;DHT22;41951;49.022;12.066;2023-03-20T05:58:05;7.70;99.90
56076;DHT22;41951;49.022;12.066;2023-03-20T06:00:31;7.70;99.90
56076;DHT22;41951;49.022;12.066;2023-03-20T06:02:56;7.80;99.90
56076;DHT22;41951;49.022;12.066;2023-03-20T06:05:22;7.90;99.90
56076;DHT22;41951;49.022;12.066;2023-03-20T06:07:48;7.90;99.90
56076;DHT22;41951;49.022;12.066;2023-03-20T06:10:13;7.90;99.90
56076;DHT22;41951;49.022;12.066;2023-03-20T06:12:39;8.00;99.90
56076;DHT22;41951;49.022;12.066;2023-03-20T06:15:05;8.00;99.90
56076;DHT22;41951;49.022;12.066;2023-03-20T06:17:30;8.00;99.90
56076;DHT22;41951;49.022;12.066;2023-03-20T06:19:56;8.10;99.90
56076;DHT22;41951;49.022;12.066;2023-03-20T06:22:21;8.10;99.90
56076;DHT22;41951;49.022;12.066;2023-03-20T06:24:47;8.10;99.90
56076;DHT22;41951;49.022;12.066;2023-03-20T06:27:13;8.20;99.90
56076;DHT22;41951;49.022;12.066;2023-03-20T06:29:38;8.30;99.90
56076;DHT22;41951;49.022;12.066;2023-03-20T06:32:06;8.40;99.90
56076;DHT22;41951;49.022;12.066;2023-03-20T06:34:33;8.50;99.90
56076;DHT22;41951;49.022;12.066;2023-03-20T06:36:58;8.50;99.90
56076;DHT22;41951;49.022;12.066;2023-03-20T06:39:24;8.50;99.90
56076;DHT22;41951;49.022;12.066;2023-03-20T06:41:49;8.50;99.90
56076;DHT22;41951;49.022;12.066;2023-03-20T06:44:15;8.50;99.90
56076;DHT22;41951;49.022;12.066;2023-03-20T06:46:41;8.50;99.90
56076;DHT22;41951;49.022;12.066;2023-03-20T06:49:06;8.50;99.90
56076;DHT22;41951;49.022;12.066;2023-03-20T06:51:32;8.60;99.90
56076;DHT22;41951;49.022;12.066;2023-03-20T06:53:57;8.70;99.90
56076;DHT22;41951;49.022;12.066;2023-03-20T06:56:23;8.70;99.90
56076;DHT22;41951;49.022;12.066;2023-03-20T06:58:49;8.70;99.90
56076;DHT22;41951;49.022;12.066;2023-03-20T07:01:15;8.80;99.90
56076;DHT22;41951;49.022;12.066;2023-03-20T07:03:42;8.90;99.90
56076;DHT22;41951;49.022;12.066;2023-03-20T07:06:08;9.20;99.90
56076;DHT22;41951;49.022;12.066;2023-03-20T07:08:36;9.00;99.90
56076;DHT22;41951;49.022;12.066;2023-03-20T07:11:02;8.90;99.90
56076;DHT22;41951;49.022;12.066;2023-03-20T07:13:29;9.00;99.90
56076;DHT22;41951;49.022;12.066;2023-03-20T07:15:55;9.10;99.90
56076;DHT22;41951;49.022;12.066;2023-03-20T07:18:23;9.20;99.90
56076;DHT22;41951;49.022;12.066;2023-03-20T07:20:51;9.20;99.90
56076;DHT22;41951;49.022;12.066;2023-03-20T07:23:17;9.20;99.90
56076;DHT22;41951;49.022;12.066;2023-03-20T07:25:43;9.30;99.90
56076;DHT22;41951;49.022;12.066;2023-03-20T07:28:09;9.30;99.90
56076;DHT22;41951;49.022;12.066;2023-03-20T07:30:34;9.20;99.90
56076;DHT22;41951;49.022;12.066;2023-03-20T07:33:00;9.20;99.90
56076;DHT22;41951;49.022;12.066;2023-03-20T07:35:26;9.20;99.90
56076;DHT22;41951;49.022;12.066;2023-03-20T07:37:51;9.20;99.90
56076;DHT22;41951;49.022;12.066;2023-03-20T07:40:17;9.20;99.90
56076;DHT22;41951;49.022;12.066;2023-03-20T07:42:44;9.20;99.90
56076;DHT22;41951;49.022;12.066;2023-03-20T07:45:10;9.20;99.90
56076;DHT22;41951;49.022;12.066;2023-03-20T07:47:35;9.30;99.90
56076;DHT22;41951;49.022;12.066;2023-03-20T07:50:01;9.30;99.90
56076;DHT22;41951;49.022;12.066;2023-03-20T07:52:27;9.30;99.90
56076;DHT22;41951;49.022;12.066;2023-03-20T07:54:52;9.30;99.90
56076;DHT22;41951;49.022;12.066;2023-03-20T07:57:18;9.30;99.90
56076;DHT22;41951;49.022;12.066;2023-03-20T07:59:43;9.30;99.90
56076;DHT22;41951;49.022;12.066;2023-03-20T08:02:18;9.40;99.90
56076;DHT22;41951;49.022;12.066;2023-03-20T08:04:44;9.40;99.90
56076;DHT22;41951;49.022;12.066;2023-03-20T08:07:10;9.50;99.90
56076;DHT22;41951;49.022;12.066;2023-03-20T08:09:36;9.50;99.90
56076;DHT22;41951;49.022;12.066;2023-03-20T08:12:02;9.60;99.90
56076;DHT22;41951;49.022;12.066;2023-03-20T08:14:28;9.70;99.90
56076;DHT22;41951;49.022;12.066;2023-03-20T08:16:54;9.70;99.90
56076;DHT22;41951;49.022;12.066;2023-03-20T08:19:19;9.80;99.90
56076;DHT22;41951;49.022;12.066;2023-03-20T08:21:45;9.80;99.90
56076;DHT22;41951;49.022;12.066;2023-03-20T08:24:11;9.80;99.90
56076;DHT22;41951;49.022;12.066;2023-03-20T08:26:36;9.80;99.90
56076;DHT22;41951;49.022;12.066;2023-03-20T08:29:03;10.00;99.90
56076;DHT22;41951;49.022;12.066;2023-03-20T08:31:28;10.10;99.90
56076;DHT22;41951;49.022;12.066;2023-03-20T08:33:54;10.00;99.90
56076;DHT22;41951;49.022;12.066;2023-03-20T08:36:21;10.10;99.90
56076;DHT22;41951;49.022;12.066;2023-03-20T08:38:47;10.10;99.90
56076;DHT22;41951;49.022;12.066;2023-03-20T08:41:14;10.20;99.90
56076;DHT22;41951;49.022;12.066;2023-03-20T08:43:39;10.20;99.90
56076;DHT22;41951;49.022;12.066;2023-03-20T08:46:06;10.30;99.90
56076;DHT22;41951;49.022;12.066;2023-03-20T08:48:32;10.40;99.90
56076;DHT22;41951;49.022;12.066;2023-03-20T08:50:58;10.60;99.90
56076;DHT22;41951;49.022;12.066;2023-03-20T08:53:23;10.80;99.90
56076;DHT22;41951;49.022;12.066;2023-03-20T08:55:50;11.00;99.90
56076;DHT22;41951;49.022;12.066;2023-03-20T08:58:17;11.10;99.90
56076;DHT22;41951;49.022;12.066;2023-03-20T09:00:43;11.20;99.90
56076;DHT22;41951;49.022;12.066;2023-03-20T09:03:12;11.20;99.90
56076;DHT22;41951;49.022;12.066;2023-03-20T09:05:39;11.10;99.90
56076;DHT22;41951;49.022;12.066;2023-03-20T09:08:05;11.20;99.90
56076;DHT22;41951;49.022;12.066;2023-03-20T09:10:31;11.30;99.90
56076;DHT22;41951;49.022;12.066;2023-03-20T09:12:57;11.50;99.90
56076;DHT22;41951;49.022;12.066;2023-03-20T09:15:23;11.60;99.90
56076;DHT22;41951;49.022;12.066;2023-03-20T09:17:48;11.70;99.90
56076;DHT22;41951;49.022;12.066;2023-03-20T09:20:14;11.60;99.90
56076;DHT22;41951;49.022;12.066;2023-03-20T09:22:39;11.80;99.90
56076;DHT22;41951;49.022;12.066;2023-03-20T09:25:07;11.80;99.90
56076;DHT22;41951;49.022;12.066;2023-03-20T09:27:32;11.80;99.90
56076;DHT22;41951;49.022;12.066;2023-03-20T09:29:58;11.80;99.90
56076;DHT22;41951;49.022;12.066;2023-03-20T09:32:23;11.80;99.90
56076;DHT22;41951;49.022;12.066;2023-03-20T09:34:49;11.70;99.90
56076;DHT22;41951;49.022;12.066;2023-03-20T09:37:15;11.80;99.90
56076;DHT22;41951;49.022;12.066;2023-03-20T09:39:40;11.80;99.90
56076;DHT22;41951;49.022;12.066;2023-03-20T09:44:56;11.90;99.90
56076;DHT22;41951;49.022;12.066;2023-03-20T09:47:39;11.90;99.90
56076;DHT22;41951;49.022;12.066;2023-03-20T09:55:29;12.30;99.90
56076;DHT22;41951;49.022;12.066;2023-03-20T09:58:00;12.50;99.90
56076;DHT22;41951;49.022;12.066;2023-03-20T10:00:28;12.60;99.90
56076;DHT22;41951;49.022;12.066;2023-03-20T10:03:04;12.70;99.90
56076;DHT22;41951;49.022;12.066;2023-03-20T10:05:42;12.50;99.90
56076;DHT22;41951;49.022;12.066;2023-03-20T10:08:13;12.50;99.90
56076;DHT22;41951;49.022;12.066;2023-03-20T10:10:57;12.40;99.90
56076;DHT22;41951;49.022;12.066;2023-03-20T10:13:34;12.30;99.90
56076;DHT22;41951;49.022;12.066;2023-03-20T10:16:10;12.20;99.90
56076;DHT22;41951;49.022;12.066;2023-03-20T10:18:41;12.10;99.90
56076;DHT22;41951;49.022;12.066;2023-03-20T10:21:19;11.90;99.90
56076;DHT22;41951;49.022;12.066;2023-03-20T10:24:16;11.90;99.90
56076;DHT22;41951;49.022;12.066;2023-03-20T10:26:49;12.00;99.90
56076;DHT22;41951;49.022;12.066;2023-03-20T10:29:37;12.10;99.90
56076;DHT22;41951;49.022;12.066;2023-03-20T10:32:28;12.20;99.90
56076;DHT22;41951;49.022;12.066;2023-03-20T10:35:20;12.40;99.90
56076;DHT22;41951;49.022;12.066;2023-03-20T10:42:54;12.60;99.90
56076;DHT22;41951;49.022;12.066;2023-03-20T10:45:45;12.80;99.90
56076;DHT22;41951;49.022;12.066;2023-03-20T10:51:01;13.10;99.90
56076;DHT22;41951;49.022;12.066;2023-03-20T10:53:54;13.10;99.90
56076;DHT22;41951;49.022;12.066;2023-03-20T10:56:43;13.10;99.90
56076;DHT22;41951;49.022;12.066;2023-03-20T10:59:26;13.10;99.90
56076;DHT22;41951;49.022;12.066;2023-03-20T11:01:52;13.00;99.90
56076;DHT22;41951;49.022;12.066;2023-03-20T11:04:18;13.10;99.90
56076;DHT22;41951;49.022;12.066;2023-03-20T11:06:48;12.90;99.90
56076;DHT22;41951;49.022;12.066;2023-03-20T11:09:21;12.80;99.90
56076;DHT22;41951;49.022;12.066;2023-03-20T11:11:50;12.80;99.90
56076;DHT22;41951;49.022;12.066;2023-03-20T11:14:21;12.80;99.90
56076;DHT22;41951;49.022;12.066;2023-03-20T11:16:55;12.70;99.90
56076;DHT22;41951;49.022;12.066;2023-03-20T11:19:25;12.80;99.90
56076;DHT22;41951;49.022;12.066;2023-03-20T11:21:56;12.80;99.90
56076;DHT22;41951;49.022;12.066;2023-03-20T11:24:36;12.80;99.90
56076;DHT22;41951;49.022;12.066;2023-03-20T11:27:12;12.70;99.90
56076;DHT22;41951;49.022;12.066;2023-03-20T11:29:40;12.70;99.90
56076;DHT22;41951;49.022;12.066;2023-03-20T11:32:49;12.60;99.90
56076;DHT22;41951;49.022;12.066;2023-03-20T11:35:08;12.60;99.90
56076;DHT22;41951;49.022;12.066;2023-03-20T11:37:34;12.50;99.90
56076;DHT22;41951;49.022;12.066;2023-03-20T11:43:12;12.50;99.90
56076;DHT22;41951;49.022;12.066;2023-03-20T11:45:53;12.50;99.90
56076;DHT22;41951;49.022;12.066;2023-03-20T11:48:25;12.60;99.90
56076;DHT22;41951;49.022;12.066;2023-03-20T11:51:04;12.70;99.90
56076;DHT22;41951;49.022;12.066;2023-03-20T11:53:37;12.70;99.90
56076;DHT22;41951;49.022;12.066;2023-03-20T12:01:23;12.70;99.90
56076;DHT22;41951;49.022;12.066;2023-03-20T12:04:12;12.70;99.90
56076;DHT22;41951;49.022;12.066;2023-03-20T12:06:48;12.70;99.90
56076;DHT22;41951;49.022;12.066;2023-03-20T12:12:14;12.70;99.90
56076;DHT22;41951;49.022;12.066;2023-03-20T12:14:52;12.70;99.90
56076;DHT22;41951;49.022;12.066;2023-03-20T12:28:37;12.20;99.90
56076;DHT22;41951;49.022;12.066;2023-03-20T12:31:25;12.10;99.90
56076;DHT22;41951;49.022;12.066;2023-03-20T12:36:42;11.70;99.90
56076;DHT22;41951;49.022;12.066;2023-03-20T12:39:16;11.70;99.90
56076;DHT22;41951;49.022;12.066;2023-03-20T12:44:46;11.80;99.90
56076;DHT22;41951;49.022;12.066;2023-03-20T12:50:41;11.90;99.90
56076;DHT22;41951;49.022;12.066;2023-03-20T12:53:57;12.00;99.90
56076;DHT22;41951;49.022;12.066;2023-03-20T13:01:47;12.00;99.90
56076;DHT22;41951;49.022;12.066;2023-03-20T13:07:01;12.10;99.90
56076;DHT22;41951;49.022;12.066;2023-03-20T13:14:50;12.20;99.90
56076;DHT22;41951;49.022;12.066;2023-03-20T13:17:38;12.20;99.90
56076;DHT22;41951;49.022;12.066;2023-03-20T13:20:25;12.20;99.90
56076;DHT22;41951;49.022;12.066;2023-03-20T13:23:20;12.30;99.90
56076;DHT22;41951;49.022;12.066;2023-03-20T13:25:59;12.40;99.90
56076;DHT22;41951;49.022;12.066;2023-03-20T13:28:51;12.40;99.90
56076;DHT22;41951;49.022;12.066;2023-03-20T13:37:28;12.40;99.90
56076;DHT22;41951;49.022;12.066;2023-03-20T13:40:02;12.40;99.90
56076;DHT22;41951;49.022;12.066;2023-03-20T13:42:44;12.30;99.90
56076;DHT22;41951;49.022;12.066;2023-03-20T13:45:41;12.30;99.90
56076;DHT22;41951;49.022;12.066;2023-03-20T13:48:35;12.30;99.90
56076;DHT22;41951;49.022;12.066;2023-03-20T13:54:11;12.20;99.90
56076;DHT22;41951;49.022;12.066;2023-03-20T13:57:00;12.20;99.90
56076;DHT22;41951;49.022;12.066;2023-03-20T14:05:11;12.10;99.90
56076;DHT22;41951;49.022;12.066;2023-03-20T14:07:41;12.10;99.90
56076;DHT22;41951;49.022;12.066;2023-03-20T14:12:59;12.20;99.90
56076;DHT22;41951;49.022;12.066;2023-03-20T14:15:34;12.20;99.90
56076;DHT22;41951;49.022;12.066;2023-03-20T14:18:06;12.20;99.90
56076;DHT22;41951;49.022;12.066;2023-03-20T14:20:33;12.20;99.90
56076;DHT22;41951;49.022;12.066;2023-03-20T14:22:59;12.20;99.90
56076;DHT22;41951;49.022;12.066;2023-03-20T14:25:27;12.20;99.90
56076;DHT22;41951;49.022;12.066;2023-03-20T14:28:22;12.10;99.90
56076;DHT22;41951;49.022;12.066;2023-03-20T14:30:49;12.10;99.90
56076;DHT22;41951;49.022;12.066;2023-03-20T14:36:10;12.10;99.90
56076;DHT22;41951;49.022;12.066;2023-03-20T14:45:06;12.10;99.90
56076;DHT22;41951;49.022;12.066;2023-03-20T14:48:03;12.10;99.90
56076;DHT22;41951;49.022;12.066;2023-03-20T14:53:20;12.10;99.90
56076;DHT22;41951;49.022;12.066;2023-03-20T14:55:58;12.10;99.90
56076;DHT22;41951;49.022;12.066;2023-03-20T15:06:18;12.10;99.90
56076;DHT22;41951;49.022;12.066;2023-03-20T15:08:57;12.10;99.90
56076;DHT22;41951;49.022;12.066;2023-03-20T15:11:25;12.00;99.90
56076;DHT22;41951;49.022;12.066;2023-03-20T15:13:52;12.00;99.90
56076;DHT22;41951;49.022;12.066;2023-03-20T15:16:26;12.00;99.90
56076;DHT22;41951;49.022;12.066;2023-03-20T15:18:52;12.00;99.90
56076;DHT22;41951;49.022;12.066;2023-03-20T15:21:39;11.90;99.90
56076;DHT22;41951;49.022;12.066;2023-03-20T15:24:06;11.90;99.90
56076;DHT22;41951;49.022;12.066;2023-03-20T15:26:33;11.90;99.90
56076;DHT22;41951;49.022;12.066;2023-03-20T15:29:07;11.90;99.90
56076;DHT22;41951;49.022;12.066;2023-03-20T15:31:37;11.90;99.90
56076;DHT22;41951;49.022;12.066;2023-03-20T15:34:11;11.90;99.90
56076;DHT22;41951;49.022;12.066;2023-03-20T15:36:39;11.90;99.90
56076;DHT22;41951;49.022;12.066;2023-03-20T15:39:20;11.90;99.90
56076;DHT22;41951;49.022;12.066;2023-03-20T15:41:54;11.90;99.90
56076;DHT22;41951;49.022;12.066;2023-03-20T15:44:27;11.90;99.90
56076;DHT22;41951;49.022;12.066;2023-03-20T15:49:21;11.90;99.90
56076;DHT22;41951;49.022;12.066;2023-03-20T15:51:48;11.90;99.90
56076;DHT22;41951;49.022;12.066;2023-03-20T15:54:15;11.90;99.90
56076;DHT22;41951;49.022;12.066;2023-03-20T15:56:45;11.90;99.90
56076;DHT22;41951;49.022;12.066;2023-03-20T15:59:14;11.90;99.90
56076;DHT22;41951;49.022;12.066;2023-03-20T16:01:43;11.90;99.90
56076;DHT22;41951;49.022;12.066;2023-03-20T16:04:14;11.90;99.90
56076;DHT22;41951;49.022;12.066;2023-03-20T16:06:59;11.90;99.90
56076;DHT22;41951;49.022;12.066;2023-03-20T16:09:26;11.80;99.90
56076;DHT22;41951;49.022;12.066;2023-03-20T16:11:58;11.80;99.90
56076;DHT22;41951;49.022;12.066;2023-03-20T16:14:26;11.80;99.90
56076;DHT22;41951;49.022;12.066;2023-03-20T16:16:55;11.80;99.90
56076;DHT22;41951;49.022;12.066;2023-03-20T16:19:22;11.80;99.90
56076;DHT22;41951;49.022;12.066;2023-03-20T16:21:55;11.80;99.90
56076;DHT22;41951;49.022;12.066;2023-03-20T16:24:26;11.80;99.90
56076;DHT22;41951;49.022;12.066;2023-03-20T16:26:53;11.80;99.90
56076;DHT22;41951;49.022;12.066;2023-03-20T16:29:21;11.80;99.90
56076;DHT22;41951;49.022;12.066;2023-03-20T16:32:01;11.80;99.90
56076;DHT22;41951;49.022;12.066;2023-03-20T16:34:35;11.80;99.90
56076;DHT22;41951;49.022;12.066;2023-03-20T16:37:07;11.70;99.90
56076;DHT22;41951;49.022;12.066;2023-03-20T16:39:33;11.70;99.90
56076;DHT22;41951;49.022;12.066;2023-03-20T16:44:35;11.70;99.90
56076;DHT22;41951;49.022;12.066;2023-03-20T16:52:28;11.60;99.90
56076;DHT22;41951;49.022;12.066;2023-03-20T16:54:59;11.60;99.90
56076;DHT22;41951;49.022;12.066;2023-03-20T16:57:26;11.60;99.90
56076;DHT22;41951;49.022;12.066;2023-03-20T16:59:55;11.60;99.90
56076;DHT22;41951;49.022;12.066;2023-03-20T17:02:26;11.50;99.90
56076;DHT22;41951;49.022;12.066;2023-03-20T17:05:01;11.50;99.90
56076;DHT22;41951;49.022;12.066;2023-03-20T17:07:27;11.60;99.90
56076;DHT22;41951;49.022;12.066;2023-03-20T17:09:59;11.50;99.90
56076;DHT22;41951;49.022;12.066;2023-03-20T17:12:29;11.50;99.90
56076;DHT22;41951;49.022;12.066;2023-03-20T17:14:55;11.50;99.90
56076;DHT22;41951;49.022;12.066;2023-03-20T17:17:21;11.50;99.90
56076;DHT22;41951;49.022;12.066;2023-03-20T17:19:49;11.50;99.90
56076;DHT22;41951;49.022;12.066;2023-03-20T17:22:16;11.50;99.90
56076;DHT22;41951;49.022;12.066;2023-03-20T17:24:42;11.40;99.90
56076;DHT22;41951;49.022;12.066;2023-03-20T17:27:10;11.40;99.90
56076;DHT22;41951;49.022;12.066;2023-03-20T17:29:36;11.40;99.90
56076;DHT22;41951;49.022;12.066;2023-03-20T17:32:09;11.40;99.90
56076;DHT22;41951;49.022;12.066;2023-03-20T17:34:35;11.40;99.90
56076;DHT22;41951;49.022;12.066;2023-03-20T17:37:00;11.40;99.90
56076;DHT22;41951;49.022;12.066;2023-03-20T17:39:28;11.40;99.90
56076;DHT22;41951;49.022;12.066;2023-03-20T17:41:54;11.30;99.90
56076;DHT22;41951;49.022;12.066;2023-03-20T17:44:20;11.30;99.90
56076;DHT22;41951;49.022;12.066;2023-03-20T17:46:46;11.30;99.90
56076;DHT22;41951;49.022;12.066;2023-03-20T17:49:14;11.40;99.90
56076;DHT22;41951;49.022;12.066;2023-03-20T17:51:41;11.30;99.90
56076;DHT22;41951;49.022;12.066;2023-03-20T17:54:06;11.30;99.90
56076;DHT22;41951;49.022;12.066;2023-03-20T17:56:32;11.20;99.90
56076;DHT22;41951;49.022;12.066;2023-03-20T17:58:59;11.30;99.90
56076;DHT22;41951;49.022;12.066;2023-03-20T18:01:25;11.30;99.90
56076;DHT22;41951;49.022;12.066;2023-03-20T18:03:51;11.30;99.90
56076;DHT22;41951;49.022;12.066;2023-03-20T18:06:29;11.30;99.90
56076;DHT22;41951;49.022;12.066;2023-03-20T18:08:56;11.30;99.90